Time;durP1;ratioP1;P1;durP2;ratioP2;P2;SDS_P1;SDS_P2;PMS_P1;PMS_P2;Temp;Humidity;BMP_temperature;BMP_pressure;BME280_temperature;BME280_humidity;BME280_pressure;Samples;Min_cycle;Max_cycle;Signal;HPM_P1;HPM_P2
2023/09/14 00:01:57;;;;;;;0.88;0.50;;;;;;;;;;5010235;28;20075;-79
2023/09/14 00:04:23;;;;;;;0.43;0.43;;;;;;;;;;5006858;28;20539;-79
2023/09/14 00:06:49;;;;;;;3.88;0.40;;;;;;;;;;5013193;28;20036;-79
2023/09/14 00:09:15;;;;;;;0.60;0.60;;;;;;;;;;5006299;28;20040;-79
2023/09/14 00:11:41;;;;;;;1.40;0.82;;;;;;;;;;5011944;28;20092;-79
2023/09/14 00:14:07;;;;;;;1.00;0.60;;;;;;;;;;5011205;28;20100;-79
2023/09/14 00:16:33;;;;;;;0.73;0.73;;;;;;;;;;5001590;28;20037;-79
2023/09/14 00:18:59;;;;;;;0.65;0.50;;;;;;;;;;5006128;28;20022;-79
2023/09/14 00:21:25;;;;;;;0.50;0.50;;;;;;;;;;5003683;28;20084;-79
2023/09/14 00:23:51;;;;;;;0.55;0.55;;;;;;;;;;5014009;28;20111;-79
2023/09/14 00:26:17;;;;;;;0.88;0.73;;;;;;;;;;5003089;28;20024;-78
2023/09/14 00:28:43;;;;;;;1.63;0.80;;;;;;;;;;5012082;28;20025;-79
2023/09/14 00:31:08;;;;;;;1.88;0.60;;;;;;;;;;5008972;28;20025;-79
2023/09/14 00:33:34;;;;;;;2.83;0.75;;;;;;;;;;5018245;28;20396;-79
2023/09/14 00:36:00;;;;;;;0.50;0.50;;;;;;;;;;5007263;28;20025;-79
2023/09/14 00:38:26;;;;;;;2.83;0.80;;;;;;;;;;5008021;28;20029;-79
2023/09/14 00:40:52;;;;;;;0.82;0.82;;;;;;;;;;5008009;28;20040;-79
2023/09/14 00:43:19;;;;;;;0.55;0.40;;;;;;;;;;5007543;28;20030;-79
2023/09/14 00:45:46;;;;;;;1.48;0.80;;;;;;;;;;4995830;28;20486;-79
2023/09/14 00:48:12;;;;;;;5.07;1.13;;;;;;;;;;5009627;28;20032;-79
2023/09/14 00:50:39;;;;;;;1.73;0.75;;;;;;;;;;4994447;28;20026;-79
2023/09/14 00:53:07;;;;;;;2.05;0.70;;;;;;;;;;5008616;28;20025;-79
2023/09/14 00:55:33;;;;;;;0.60;0.50;;;;;;;;;;5008708;28;20040;-78
2023/09/14 00:57:59;;;;;;;1.25;0.70;;;;;;;;;;5004969;28;20025;-79
2023/09/14 01:00:26;;;;;;;0.40;0.40;;;;;;;;;;5009107;28;20542;-79
2023/09/14 01:02:54;;;;;;;0.60;0.47;;;;;;;;;;5008610;28;20735;-79
2023/09/14 01:05:20;;;;;;;0.82;0.75;;;;;;;;;;5008647;28;20046;-79
2023/09/14 01:07:46;;;;;;;0.70;0.60;;;;;;;;;;5009368;28;20480;-79
2023/09/14 01:10:15;;;;;;;0.68;0.68;;;;;;;;;;5006365;28;20385;-79
2023/09/14 01:12:41;;;;;;;0.82;0.75;;;;;;;;;;5005644;28;20046;-79
2023/09/14 01:15:07;;;;;;;0.77;0.77;;;;;;;;;;5007564;28;20824;-79
2023/09/14 01:17:33;;;;;;;0.52;0.52;;;;;;;;;;5008589;28;20077;-79
2023/09/14 01:20:04;;;;;;;1.30;0.50;;;;;;;;;;5007230;28;20041;-79
2023/09/14 01:22:32;;;;;;;0.35;0.35;;;;;;;;;;5004510;28;20026;-79
2023/09/14 01:25:03;;;;;;;1.45;1.13;;;;;;;;;;5012264;28;20029;-79
2023/09/14 01:27:29;;;;;;;0.75;0.75;;;;;;;;;;5011687;28;20037;-79
2023/09/14 01:29:57;;;;;;;1.42;0.90;;;;;;;;;;4996562;28;20022;-79
2023/09/14 01:32:23;;;;;;;1.15;0.75;;;;;;;;;;4998221;28;20073;-79
2023/09/14 01:34:50;;;;;;;1.80;0.82;;;;;;;;;;5008486;28;20045;-79
2023/09/14 01:37:16;;;;;;;1.90;0.70;;;;;;;;;;5007014;28;20412;-79
2023/09/14 01:39:42;;;;;;;0.65;0.60;;;;;;;;;;5013103;28;20037;-79
2023/09/14 01:42:08;;;;;;;1.13;0.80;;;;;;;;;;5007900;28;20455;-79
2023/09/14 01:44:34;;;;;;;4.32;0.70;;;;;;;;;;5009109;28;20038;-79
2023/09/14 01:47:01;;;;;;;1.58;0.63;;;;;;;;;;5002485;28;20034;-79
2023/09/14 01:49:26;;;;;;;0.73;0.50;;;;;;;;;;5012399;28;20029;-79
2023/09/14 01:51:53;;;;;;;1.48;0.57;;;;;;;;;;5009505;28;20045;-78
2023/09/14 01:54:19;;;;;;;1.52;0.82;;;;;;;;;;5021860;28;20393;-79
2023/09/14 01:56:45;;;;;;;0.55;0.50;;;;;;;;;;5009258;28;20034;-79
2023/09/14 01:59:11;;;;;;;1.23;0.80;;;;;;;;;;5008439;28;20109;-79
2023/09/14 02:01:37;;;;;;;1.10;0.88;;;;;;;;;;5008396;28;20470;-78
2023/09/14 02:04:03;;;;;;;1.00;0.90;;;;;;;;;;5020846;28;20021;-79
2023/09/14 02:06:29;;;;;;;0.68;0.60;;;;;;;;;;5017702;28;20049;-79
2023/09/14 02:08:55;;;;;;;1.17;0.65;;;;;;;;;;5014994;28;20095;-79
2023/09/14 02:11:21;;;;;;;1.00;0.63;;;;;;;;;;5021447;28;20033;-79
2023/09/14 02:13:47;;;;;;;0.80;0.60;;;;;;;;;;5013161;28;20056;-79
2023/09/14 02:16:13;;;;;;;0.68;0.68;;;;;;;;;;5011913;28;20037;-78
2023/09/14 02:18:39;;;;;;;0.50;0.50;;;;;;;;;;5009475;28;20030;-79
2023/09/14 02:21:05;;;;;;;0.90;0.60;;;;;;;;;;5010674;28;20065;-79
2023/09/14 02:23:31;;;;;;;0.70;0.70;;;;;;;;;;5016768;28;20030;-78
2023/09/14 02:25:57;;;;;;;0.60;0.60;;;;;;;;;;5008601;28;20033;-78
2023/09/14 02:28:23;;;;;;;0.65;0.40;;;;;;;;;;5009220;28;20175;-78
2023/09/14 02:30:49;;;;;;;2.28;0.60;;;;;;;;;;5007919;28;20030;-78
2023/09/14 02:33:15;;;;;;;0.50;0.50;;;;;;;;;;5016033;28;20026;-79
2023/09/14 02:35:41;;;;;;;1.33;0.73;;;;;;;;;;5013256;28;20036;-78
2023/09/14 02:38:07;;;;;;;0.82;0.43;;;;;;;;;;5013901;28;20029;-78
2023/09/14 02:40:33;;;;;;;0.60;0.60;;;;;;;;;;4999037;28;20034;-78
2023/09/14 02:43:00;;;;;;;0.60;0.60;;;;;;;;;;5009981;28;20030;-79
2023/09/14 02:45:26;;;;;;;0.60;0.60;;;;;;;;;;5011110;28;20083;-78
2023/09/14 02:47:52;;;;;;;0.55;0.55;;;;;;;;;;5011581;28;20747;-78
2023/09/14 02:50:18;;;;;;;0.70;0.55;;;;;;;;;;5011462;28;20073;-79
2023/09/14 02:52:44;;;;;;;1.90;1.17;;;;;;;;;;5009052;28;20030;-78
2023/09/14 02:55:10;;;;;;;1.08;0.80;;;;;;;;;;5017418;28;20045;-78
2023/09/14 02:57:36;;;;;;;0.95;0.75;;;;;;;;;;5011579;28;20093;-79
2023/09/14 03:00:02;;;;;;;2.28;0.88;;;;;;;;;;5005609;28;20151;-78
2023/09/14 03:02:28;;;;;;;1.25;0.88;;;;;;;;;;5008018;28;20018;-78
2023/09/14 03:04:54;;;;;;;2.25;0.70;;;;;;;;;;5011583;28;20100;-78
2023/09/14 03:07:20;;;;;;;1.33;0.70;;;;;;;;;;5013886;28;20145;-78
2023/09/14 03:09:46;;;;;;;0.80;0.80;;;;;;;;;;5016139;28;20029;-78
2023/09/14 03:12:12;;;;;;;4.78;0.98;;;;;;;;;;5012330;28;20037;-79
2023/09/14 03:14:38;;;;;;;1.80;0.70;;;;;;;;;;5020228;28;20087;-78
2023/09/14 03:17:04;;;;;;;0.88;0.52;;;;;;;;;;5007535;28;20034;-79
2023/09/14 03:19:30;;;;;;;0.50;0.50;;;;;;;;;;5012812;28;20026;-79
2023/09/14 03:21:56;;;;;;;1.20;0.90;;;;;;;;;;5013765;28;20032;-79
2023/09/14 03:24:22;;;;;;;1.67;0.60;;;;;;;;;;5010946;28;20025;-78
2023/09/14 03:26:48;;;;;;;0.82;0.80;;;;;;;;;;5012482;28;20048;-79
2023/09/14 03:29:14;;;;;;;0.75;0.70;;;;;;;;;;5019943;28;20025;-76
2023/09/14 03:31:40;;;;;;;1.15;0.70;;;;;;;;;;5020761;28;20026;-78
2023/09/14 03:34:07;;;;;;;0.75;0.60;;;;;;;;;;5018167;28;20033;-78
2023/09/14 03:36:33;;;;;;;0.82;0.80;;;;;;;;;;5014664;28;20029;-78
2023/09/14 03:38:59;;;;;;;1.35;0.77;;;;;;;;;;5016409;28;20123;-78
2023/09/14 03:41:25;;;;;;;0.70;0.68;;;;;;;;;;5010261;28;20045;-78
2023/09/14 03:43:51;;;;;;;1.45;0.93;;;;;;;;;;5007594;28;20022;-78
2023/09/14 03:46:17;;;;;;;0.65;0.60;;;;;;;;;;5020972;28;20032;-78
2023/09/14 03:48:43;;;;;;;1.88;0.75;;;;;;;;;;5011470;28;20031;-78
2023/09/14 03:51:09;;;;;;;1.52;0.98;;;;;;;;;;5015541;28;20030;-78
2023/09/14 03:53:35;;;;;;;0.90;0.47;;;;;;;;;;5008696;28;20029;-78
2023/09/14 03:56:02;;;;;;;2.05;0.50;;;;;;;;;;5004970;28;20476;-78
2023/09/14 03:58:28;;;;;;;0.60;0.60;;;;;;;;;;5020857;28;20034;-78
2023/09/14 04:00:55;;;;;;;4.55;0.82;;;;;;;;;;4997648;28;20482;-78
2023/09/14 04:03:21;;;;;;;0.85;0.55;;;;;;;;;;5008898;28;20053;-78
2023/09/14 04:05:47;;;;;;;1.77;0.68;;;;;;;;;;5011392;28;20042;-78
2023/09/14 04:08:13;;;;;;;3.60;0.93;;;;;;;;;;5006616;28;20146;-78
2023/09/14 04:10:39;;;;;;;1.13;0.70;;;;;;;;;;5011937;28;20112;-78
2023/09/14 04:13:25;;;;;;;1.20;0.60;;;;;;;;;;5012758;28;20404;-78
2023/09/14 04:15:51;;;;;;;0.60;0.60;;;;;;;;;;5000184;28;20042;-78
2023/09/14 04:18:17;;;;;;;0.60;0.60;;;;;;;;;;5008446;28;20361;-77
2023/09/14 04:20:44;;;;;;;0.93;0.68;;;;;;;;;;5011568;28;20400;-78
2023/09/14 04:23:09;;;;;;;2.20;1.05;;;;;;;;;;5002445;28;20033;-78
2023/09/14 04:25:36;;;;;;;1.95;0.63;;;;;;;;;;5007003;28;20027;-78
2023/09/14 04:28:03;;;;;;;0.70;0.70;;;;;;;;;;5012125;28;20057;-78
2023/09/14 04:30:28;;;;;;;0.75;0.65;;;;;;;;;;5007751;28;20469;-78
2023/09/14 04:32:54;;;;;;;2.85;0.60;;;;;;;;;;5016362;28;20030;-78
2023/09/14 04:35:20;;;;;;;1.95;0.98;;;;;;;;;;5019148;28;20029;-77
2023/09/14 04:37:46;;;;;;;0.68;0.68;;;;;;;;;;5008353;28;20465;-78
2023/09/14 04:40:12;;;;;;;0.22;0.22;;;;;;;;;;5005305;28;20544;-78
2023/09/14 04:42:38;;;;;;;0.55;0.50;;;;;;;;;;5009090;28;20458;-78
2023/09/14 04:45:05;;;;;;;2.15;1.00;;;;;;;;;;5006051;28;20161;-78
2023/09/14 04:47:31;;;;;;;3.80;0.93;;;;;;;;;;5008644;28;20034;-77
2023/09/14 04:49:57;;;;;;;2.15;1.00;;;;;;;;;;5004465;28;20029;-77
2023/09/14 04:52:22;;;;;;;0.47;0.47;;;;;;;;;;4999154;28;20034;-78
2023/09/14 04:54:48;;;;;;;0.73;0.50;;;;;;;;;;5010208;28;20030;-80
2023/09/14 04:57:14;;;;;;;0.98;0.90;;;;;;;;;;5009748;28;20045;-79
2023/09/14 04:59:40;;;;;;;1.33;0.88;;;;;;;;;;5014586;28;20030;-80
2023/09/14 05:02:06;;;;;;;2.45;1.25;;;;;;;;;;4995081;28;20022;-82
2023/09/14 05:04:32;;;;;;;1.35;0.77;;;;;;;;;;5008486;28;20052;-81
2023/09/14 05:06:58;;;;;;;2.63;0.60;;;;;;;;;;5005499;28;20022;-80
2023/09/14 05:09:24;;;;;;;0.63;0.63;;;;;;;;;;5012268;28;20527;-80
2023/09/14 05:11:50;;;;;;;0.85;0.85;;;;;;;;;;5008539;28;20646;-80
2023/09/14 05:14:16;;;;;;;1.80;0.80;;;;;;;;;;5007227;28;20026;-78
2023/09/14 05:16:42;;;;;;;0.98;0.80;;;;;;;;;;5008618;28;20026;-77
2023/09/14 05:19:08;;;;;;;0.65;0.45;;;;;;;;;;5004658;28;20396;-78
2023/09/14 05:21:34;;;;;;;2.28;1.02;;;;;;;;;;5009529;28;20026;-78
2023/09/14 05:24:00;;;;;;;2.03;1.42;;;;;;;;;;5025257;28;20033;-81
2023/09/14 05:26:26;;;;;;;0.82;0.70;;;;;;;;;;5018579;28;20053;-78
2023/09/14 05:28:52;;;;;;;1.60;0.93;;;;;;;;;;5017969;28;20025;-78
2023/09/14 05:31:18;;;;;;;2.72;1.33;;;;;;;;;;5004989;28;20121;-78
2023/09/14 05:33:47;;;;;;;0.50;0.50;;;;;;;;;;5002071;28;20038;-79
2023/09/14 05:36:13;;;;;;;1.38;1.02;;;;;;;;;;5012677;28;20038;-78
2023/09/14 05:38:39;;;;;;;1.85;0.70;;;;;;;;;;5021977;28;20036;-78
2023/09/14 05:41:05;;;;;;;1.88;0.80;;;;;;;;;;5015570;28;20411;-79
2023/09/14 05:43:31;;;;;;;1.58;1.05;;;;;;;;;;5001662;28;20387;-79
2023/09/14 05:45:57;;;;;;;1.73;0.75;;;;;;;;;;5006399;28;20022;-79
2023/09/14 05:48:23;;;;;;;1.38;0.88;;;;;;;;;;5009818;28;20259;-79
2023/09/14 05:50:49;;;;;;;1.08;0.98;;;;;;;;;;5012464;28;20026;-79
2023/09/14 05:53:15;;;;;;;1.00;0.82;;;;;;;;;;5012246;28;20037;-79
2023/09/14 05:55:41;;;;;;;2.97;1.23;;;;;;;;;;5012199;28;20033;-79
2023/09/14 05:58:07;;;;;;;0.82;0.68;;;;;;;;;;5012156;28;20157;-79
2023/09/14 06:00:33;;;;;;;0.77;0.63;;;;;;;;;;5012054;28;20064;-80
2023/09/14 06:02:59;;;;;;;1.98;1.25;;;;;;;;;;5011915;28;20029;-79
2023/09/14 06:05:25;;;;;;;0.63;0.63;;;;;;;;;;5010487;28;20044;-78
2023/09/14 06:07:52;;;;;;;0.98;0.85;;;;;;;;;;5009440;28;20030;-78
2023/09/14 06:10:18;;;;;;;1.13;0.65;;;;;;;;;;5011640;28;20030;-78
2023/09/14 06:12:44;;;;;;;0.63;0.60;;;;;;;;;;5011989;28;20037;-78
2023/09/14 06:15:10;;;;;;;1.35;0.60;;;;;;;;;;5011801;28;20032;-78
2023/09/14 06:17:36;;;;;;;0.95;0.85;;;;;;;;;;5011657;28;20026;-78
2023/09/14 06:20:03;;;;;;;1.10;0.93;;;;;;;;;;5011181;28;20026;-78
2023/09/14 06:22:29;;;;;;;2.78;0.73;;;;;;;;;;5014827;28;20030;-78
2023/09/14 06:24:56;;;;;;;1.10;0.85;;;;;;;;;;5019085;28;20333;-76
2023/09/14 06:27:22;;;;;;;1.70;0.95;;;;;;;;;;5013670;28;20492;-76
2023/09/14 06:29:48;;;;;;;1.27;0.90;;;;;;;;;;5008375;28;20366;-77
2023/09/14 06:32:14;;;;;;;1.80;1.08;;;;;;;;;;5010278;28;20041;-77
2023/09/14 06:34:40;;;;;;;3.15;1.00;;;;;;;;;;5014409;28;20507;-76
2023/09/14 06:37:06;;;;;;;1.88;0.93;;;;;;;;;;5011351;28;20092;-77
2023/09/14 06:39:32;;;;;;;1.15;0.73;;;;;;;;;;5001692;28;20399;-78
2023/09/14 06:41:58;;;;;;;2.15;0.90;;;;;;;;;;5012689;28;20026;-78
2023/09/14 06:44:25;;;;;;;0.63;0.63;;;;;;;;;;5014287;28;20040;-77
2023/09/14 06:46:51;;;;;;;1.27;0.85;;;;;;;;;;5021349;28;20022;-77
2023/09/14 06:49:17;;;;;;;2.25;1.23;;;;;;;;;;4994098;28;20026;-77
2023/09/14 06:51:43;;;;;;;2.25;1.08;;;;;;;;;;5018983;28;20013;-76
2023/09/14 06:54:09;;;;;;;1.15;0.73;;;;;;;;;;5009033;28;20497;-75
2023/09/14 06:56:35;;;;;;;2.88;0.70;;;;;;;;;;4992439;28;20023;-76
2023/09/14 06:59:02;;;;;;;1.25;0.85;;;;;;;;;;5018311;28;20071;-75
2023/09/14 07:01:28;;;;;;;1.23;0.70;;;;;;;;;;5026274;28;20040;-76
2023/09/14 07:03:54;;;;;;;1.58;0.93;;;;;;;;;;5016575;28;20105;-77
2023/09/14 07:06:20;;;;;;;1.23;0.50;;;;;;;;;;5020274;28;20050;-76
2023/09/14 07:08:46;;;;;;;0.75;0.73;;;;;;;;;;5015610;28;20045;-76
2023/09/14 07:11:12;;;;;;;4.40;0.73;;;;;;;;;;5012147;28;20030;-78
2023/09/14 07:13:38;;;;;;;2.58;1.05;;;;;;;;;;5011951;28;20065;-78
2023/09/14 07:16:04;;;;;;;0.73;0.50;;;;;;;;;;5001111;28;20100;-77
2023/09/14 07:18:31;;;;;;;3.33;1.17;;;;;;;;;;5016839;28;20576;-78
2023/09/14 07:20:58;;;;;;;0.60;0.57;;;;;;;;;;5019317;28;20033;-78
2023/09/14 07:23:25;;;;;;;1.60;0.88;;;;;;;;;;5004556;28;20037;-78
2023/09/14 07:25:51;;;;;;;1.25;0.85;;;;;;;;;;5009730;28;20025;-76
2023/09/14 07:28:18;;;;;;;1.13;0.70;;;;;;;;;;5016458;28;20439;-84
2023/09/14 07:30:44;;;;;;;1.08;0.80;;;;;;;;;;5017274;28;20026;-83
2023/09/14 07:33:13;;;;;;;0.47;0.40;;;;;;;;;;5014369;28;20025;-84
2023/09/14 07:35:42;;;;;;;1.23;0.70;;;;;;;;;;5018812;28;20084;-84
2023/09/14 07:38:08;;;;;;;1.13;0.85;;;;;;;;;;5010879;28;20026;-83
2023/09/14 07:40:34;;;;;;;2.03;0.80;;;;;;;;;;5023664;28;20041;-84
2023/09/14 07:43:00;;;;;;;0.43;0.43;;;;;;;;;;4996739;28;20384;-77
2023/09/14 07:45:26;;;;;;;5.53;0.85;;;;;;;;;;5008121;28;20038;-77
2023/09/14 07:47:52;;;;;;;6.53;0.65;;;;;;;;;;5007790;28;20029;-77
2023/09/14 07:50:18;;;;;;;0.93;0.75;;;;;;;;;;5013513;28;20440;-77
2023/09/14 07:52:44;;;;;;;1.00;0.80;;;;;;;;;;5016707;28;20496;-77
2023/09/14 07:55:10;;;;;;;0.63;0.50;;;;;;;;;;5014281;28;20424;-77
2023/09/14 07:57:36;;;;;;;2.55;0.80;;;;;;;;;;4993014;28;20026;-77
2023/09/14 08:00:03;;;;;;;1.15;0.85;;;;;;;;;;5007208;28;20554;-77
2023/09/14 08:02:28;;;;;;;0.77;0.57;;;;;;;;;;5016077;28;20021;-77
2023/09/14 08:04:54;;;;;;;1.33;0.85;;;;;;;;;;5020068;28;20500;-77
2023/09/14 08:07:20;;;;;;;6.50;0.90;;;;;;;;;;5010750;28;20400;-78
2023/09/14 08:09:46;;;;;;;1.45;0.60;;;;;;;;;;5016208;28;20029;-78
2023/09/14 08:12:12;;;;;;;0.28;0.28;;;;;;;;;;5014033;28;20041;-78
2023/09/14 08:14:39;;;;;;;1.23;0.85;;;;;;;;;;5007640;28;20077;-78
2023/09/14 08:17:05;;;;;;;1.77;0.95;;;;;;;;;;5018831;28;20065;-78
2023/09/14 08:19:31;;;;;;;1.73;0.98;;;;;;;;;;5008835;28;20046;-78
2023/09/14 08:21:57;;;;;;;1.77;0.82;;;;;;;;;;5005701;28;20026;-78
2023/09/14 08:24:23;;;;;;;0.60;0.60;;;;;;;;;;5020311;28;20083;-78
2023/09/14 08:26:49;;;;;;;0.70;0.40;;;;;;;;;;5012340;28;20026;-78
2023/09/14 08:29:15;;;;;;;0.60;0.50;;;;;;;;;;4993209;28;20041;-78
2023/09/14 08:31:43;;;;;;;1.38;0.80;;;;;;;;;;4997493;28;20376;-78
2023/09/14 08:34:09;;;;;;;1.23;0.80;;;;;;;;;;5003947;28;20045;-78
2023/09/14 08:36:37;;;;;;;0.95;0.60;;;;;;;;;;5009257;28;20484;-78
2023/09/14 08:39:04;;;;;;;1.73;0.73;;;;;;;;;;5014277;28;20543;-78
2023/09/14 08:41:36;;;;;;;1.02;0.85;;;;;;;;;;5016679;28;20396;-78
2023/09/14 08:44:02;;;;;;;0.88;0.63;;;;;;;;;;5005424;28;20440;-78
2023/09/14 08:46:29;;;;;;;0.40;0.40;;;;;;;;;;5017623;28;20116;-78
2023/09/14 08:48:56;;;;;;;0.45;0.45;;;;;;;;;;5009981;28;20026;-78
2023/09/14 08:51:25;;;;;;;2.72;0.82;;;;;;;;;;5010151;28;20033;-78
2023/09/14 08:53:52;;;;;;;0.60;0.57;;;;;;;;;;5008916;28;20042;-78
2023/09/14 08:56:20;;;;;;;0.63;0.60;;;;;;;;;;5006394;28;20397;-78
2023/09/14 08:58:46;;;;;;;1.05;0.40;;;;;;;;;;5002899;28;20561;-78
2023/09/14 09:01:13;;;;;;;2.78;0.95;;;;;;;;;;5008102;28;20030;-78
2023/09/14 09:03:39;;;;;;;2.08;0.70;;;;;;;;;;5017156;28;20030;-78
2023/09/14 09:06:05;;;;;;;0.50;0.50;;;;;;;;;;5014526;28;20056;-78
2023/09/14 09:08:32;;;;;;;1.33;0.73;;;;;;;;;;5013503;28;20041;-77
2023/09/14 09:10:59;;;;;;;0.80;0.75;;;;;;;;;;5018853;28;20391;-78
2023/09/14 09:13:31;;;;;;;0.75;0.60;;;;;;;;;;5007598;28;20484;-78
2023/09/14 09:15:57;;;;;;;0.73;0.50;;;;;;;;;;4994481;28;20036;-78
2023/09/14 09:18:23;;;;;;;0.38;0.38;;;;;;;;;;4996342;28;20034;-78
2023/09/14 09:20:49;;;;;;;1.65;0.68;;;;;;;;;;5014640;28;20053;-78
2023/09/14 09:23:16;;;;;;;0.88;0.70;;;;;;;;;;5013752;28;20087;-77
2023/09/14 09:25:43;;;;;;;0.45;0.40;;;;;;;;;;5015218;28;20037;-78
2023/09/14 09:28:09;;;;;;;0.57;0.50;;;;;;;;;;5004958;28;20030;-78
2023/09/14 09:30:36;;;;;;;2.60;0.80;;;;;;;;;;5010683;28;20128;-78
2023/09/14 09:33:02;;;;;;;0.95;0.70;;;;;;;;;;4999095;28;20023;-78
2023/09/14 09:35:29;;;;;;;0.70;0.40;;;;;;;;;;4993525;28;20042;-78
2023/09/14 09:37:55;;;;;;;3.63;0.73;;;;;;;;;;5007019;28;20453;-78
2023/09/14 09:40:23;;;;;;;1.40;0.50;;;;;;;;;;5008836;28;20030;-77
2023/09/14 09:42:49;;;;;;;1.63;0.65;;;;;;;;;;5008515;28;20473;-78
2023/09/14 09:45:15;;;;;;;1.38;0.60;;;;;;;;;;5009180;28;20507;-77
2023/09/14 09:47:42;;;;;;;3.63;0.52;;;;;;;;;;5006517;28;20030;-78
2023/09/14 09:50:08;;;;;;;0.70;0.63;;;;;;;;;;5013246;28;20121;-77
2023/09/14 09:52:34;;;;;;;0.55;0.40;;;;;;;;;;5005777;28;20145;-78
2023/09/14 09:55:00;;;;;;;1.05;0.63;;;;;;;;;;5017115;28;20124;-86
2023/09/14 09:57:30;;;;;;;1.02;0.93;;;;;;;;;;5011264;28;20526;-85
2023/09/14 09:59:56;;;;;;;0.65;0.50;;;;;;;;;;5009731;28;20485;-86
2023/09/14 10:02:32;;;;;;;1.02;0.75;;;;;;;;;;5008034;28;20022;-84
2023/09/14 10:04:58;;;;;;;0.73;0.52;;;;;;;;;;5014826;28;20045;-91
2023/09/14 10:07:24;;;;;;;0.98;0.80;;;;;;;;;;5014543;28;20026;-80
2023/09/14 10:09:54;;;;;;;0.38;0.38;;;;;;;;;;5007059;28;20022;-79
2023/09/14 10:12:24;;;;;;;0.63;0.43;;;;;;;;;;4995194;28;20160;-85
2023/09/14 10:14:51;;;;;;;0.65;0.60;;;;;;;;;;5006853;28;20480;-85
2023/09/14 10:17:21;;;;;;;0.88;0.77;;;;;;;;;;5009609;28;20034;-83
2023/09/14 10:19:48;;;;;;;0.60;0.57;;;;;;;;;;5006797;28;20080;-83
2023/09/14 10:22:15;;;;;;;1.23;0.50;;;;;;;;;;5006477;28;20022;-83
2023/09/14 10:24:41;;;;;;;0.50;0.50;;;;;;;;;;5006071;28;20535;-76
2023/09/14 10:27:09;;;;;;;1.35;0.70;;;;;;;;;;5001865;28;20034;-76
2023/09/14 10:29:39;;;;;;;1.15;0.50;;;;;;;;;;4988273;28;20527;-76
2023/09/14 10:32:06;;;;;;;0.40;0.40;;;;;;;;;;4989923;28;20408;-77
2023/09/14 10:34:34;;;;;;;0.80;0.57;;;;;;;;;;4989483;28;20026;-76
2023/09/14 10:37:00;;;;;;;0.43;0.40;;;;;;;;;;4990200;28;20038;-76
2023/09/14 10:39:27;;;;;;;0.50;0.50;;;;;;;;;;4990378;28;20133;-76
2023/09/14 10:41:54;;;;;;;0.75;0.50;;;;;;;;;;4990594;28;20036;-76
2023/09/14 10:44:21;;;;;;;0.57;0.50;;;;;;;;;;4990125;28;20465;-76
2023/09/14 10:46:48;;;;;;;0.60;0.60;;;;;;;;;;4991466;28;20140;-76
2023/09/14 10:49:14;;;;;;;0.98;0.68;;;;;;;;;;4990735;28;20461;-76
2023/09/14 10:51:45;;;;;;;0.38;0.38;;;;;;;;;;4990944;28;20122;-76
2023/09/14 10:54:11;;;;;;;0.98;0.47;;;;;;;;;;4990558;28;20045;-76
2023/09/14 10:56:37;;;;;;;0.60;0.60;;;;;;;;;;4990686;28;20034;-76
2023/09/14 10:59:08;;;;;;;0.82;0.55;;;;;;;;;;4990552;28;20275;-76
2023/09/14 11:01:44;;;;;;;0.88;0.68;;;;;;;;;;4990510;28;20508;-75
2023/09/14 11:04:13;;;;;;;0.43;0.43;;;;;;;;;;5009890;28;20112;-76
2023/09/14 11:06:46;;;;;;;0.75;0.60;;;;;;;;;;5010156;28;20029;-76
2023/09/14 11:09:14;;;;;;;0.32;0.32;;;;;;;;;;5010099;28;20099;-76
2023/09/14 11:11:41;;;;;;;0.60;0.60;;;;;;;;;;4995609;28;20560;-76
2023/09/14 11:14:08;;;;;;;0.43;0.32;;;;;;;;;;5000414;28;20420;-77
2023/09/14 11:16:41;;;;;;;0.75;0.60;;;;;;;;;;4994785;28;20022;-77
2023/09/14 11:19:07;;;;;;;0.57;0.57;;;;;;;;;;5009493;28;20365;-75
2023/09/14 11:21:33;;;;;;;0.40;0.40;;;;;;;;;;5009568;28;20032;-77
2023/09/14 11:24:00;;;;;;;0.70;0.50;;;;;;;;;;5010048;28;20017;-76
2023/09/14 11:26:32;;;;;;;0.50;0.50;;;;;;;;;;5004780;28;20053;-76
2023/09/14 11:28:58;;;;;;;0.75;0.60;;;;;;;;;;5009415;28;20026;-77
2023/09/14 11:31:31;;;;;;;0.43;0.40;;;;;;;;;;5009336;28;20034;-76
2023/09/14 11:33:57;;;;;;;1.13;0.75;;;;;;;;;;5009489;28;20113;-76
2023/09/14 11:36:28;;;;;;;0.40;0.40;;;;;;;;;;5009208;28;20398;-76
2023/09/14 11:38:54;;;;;;;0.50;0.47;;;;;;;;;;5009609;28;20380;-76
2023/09/14 11:41:40;;;;;;;0.75;0.63;;;;;;;;;;5009118;28;20502;-76
2023/09/14 11:44:07;;;;;;;0.40;0.40;;;;;;;;;;5009268;28;20440;-77
2023/09/14 11:46:37;;;;;;;0.68;0.57;;;;;;;;;;5009298;28;20022;-76
2023/09/14 11:49:03;;;;;;;1.50;0.75;;;;;;;;;;5009132;28;20080;-76
2023/09/14 11:51:30;;;;;;;3.80;0.65;;;;;;;;;;5009160;28;20026;-76
2023/09/14 11:53:59;;;;;;;0.55;0.55;;;;;;;;;;5009160;28;20034;-76
2023/09/14 11:56:26;;;;;;;0.47;0.47;;;;;;;;;;5008964;28;20032;-76
2023/09/14 11:58:53;;;;;;;1.40;0.70;;;;;;;;;;5009188;28;20072;-76
2023/09/14 12:01:19;;;;;;;1.60;0.68;;;;;;;;;;5008846;28;20112;-76
2023/09/14 12:03:45;;;;;;;1.08;0.77;;;;;;;;;;5004426;28;20520;-76
2023/09/14 12:06:11;;;;;;;0.60;0.60;;;;;;;;;;5000035;28;20065;-76
2023/09/14 12:08:46;;;;;;;0.80;0.70;;;;;;;;;;5008677;28;20034;-76
2023/09/14 12:11:13;;;;;;;0.50;0.50;;;;;;;;;;5008871;28;20026;-76
2023/09/14 12:13:48;;;;;;;0.45;0.40;;;;;;;;;;5008713;28;20088;-76
2023/09/14 12:16:19;;;;;;;0.73;0.50;;;;;;;;;;5008810;28;20104;-76
2023/09/14 12:18:45;;;;;;;0.73;0.50;;;;;;;;;;5008648;28;20385;-77
2023/09/14 12:21:11;;;;;;;0.57;0.50;;;;;;;;;;5008678;28;20293;-76
2023/09/14 12:23:38;;;;;;;0.38;0.30;;;;;;;;;;5008572;28;20531;-76
2023/09/14 12:26:11;;;;;;;0.85;0.60;;;;;;;;;;5008731;28;20025;-76
2023/09/14 12:28:37;;;;;;;0.93;0.65;;;;;;;;;;5008124;28;20025;-76
2023/09/14 12:31:03;;;;;;;0.32;0.32;;;;;;;;;;5008417;28;20039;-76
2023/09/14 12:33:29;;;;;;;0.47;0.45;;;;;;;;;;5008371;28;20025;-76
2023/09/14 12:35:56;;;;;;;0.88;0.80;;;;;;;;;;5008433;28;20034;-76
2023/09/14 12:38:22;;;;;;;0.70;0.50;;;;;;;;;;5008204;28;20033;-76
2023/09/14 12:40:51;;;;;;;1.00;0.60;;;;;;;;;;5004572;28;20025;-86
2023/09/14 12:43:17;;;;;;;0.60;0.57;;;;;;;;;;4998668;28;20030;-84
2023/09/14 12:45:43;;;;;;;0.50;0.50;;;;;;;;;;4992245;28;20031;-84
2023/09/14 12:48:09;;;;;;;0.30;0.30;;;;;;;;;;4994961;28;20022;-85
2023/09/14 12:50:36;;;;;;;0.50;0.50;;;;;;;;;;5002702;28;20041;-85
2023/09/14 12:53:12;;;;;;;1.27;0.43;;;;;;;;;;5003494;28;20030;-85
2023/09/14 12:55:43;;;;;;;1.30;0.60;;;;;;;;;;4990199;28;20030;-85
2023/09/14 12:58:10;;;;;;;0.45;0.45;;;;;;;;;;4988965;28;20077;-84
2023/09/14 13:00:37;;;;;;;0.88;0.40;;;;;;;;;;4989719;28;20468;-84
2023/09/14 13:03:07;;;;;;;0.43;0.43;;;;;;;;;;4992822;28;20083;-85
2023/09/14 13:05:33;;;;;;;1.85;0.50;;;;;;;;;;4998378;28;20567;-84
2023/09/14 13:08:00;;;;;;;0.60;0.60;;;;;;;;;;4999528;28;20034;-84
2023/09/14 13:10:27;;;;;;;0.65;0.60;;;;;;;;;;5003819;28;20033;-83
2023/09/14 13:13:06;;;;;;;0.65;0.60;;;;;;;;;;5002268;28;20107;-84
2023/09/14 13:15:33;;;;;;;0.50;0.50;;;;;;;;;;4988988;28;20042;-83
2023/09/14 13:18:06;;;;;;;0.75;0.40;;;;;;;;;;5006059;28;20049;-88
2023/09/14 13:20:33;;;;;;;1.17;0.60;;;;;;;;;;5000366;28;20021;-84
2023/09/14 13:23:00;;;;;;;0.90;0.75;;;;;;;;;;5001237;28;20018;-76
2023/09/14 13:25:26;;;;;;;0.50;0.47;;;;;;;;;;4995183;28;20160;-79
2023/09/14 13:27:56;;;;;;;0.60;0.60;;;;;;;;;;4992754;28;20148;-79
2023/09/14 13:30:22;;;;;;;0.60;0.50;;;;;;;;;;4992851;28;20476;-79
2023/09/14 13:32:49;;;;;;;0.50;0.38;;;;;;;;;;5005129;28;20035;-79
2023/09/14 13:35:15;;;;;;;1.80;0.68;;;;;;;;;;5000721;28;20061;-80
2023/09/14 13:37:42;;;;;;;1.08;0.85;;;;;;;;;;4996717;28;20392;-83
2023/09/14 13:40:18;;;;;;;0.70;0.70;;;;;;;;;;4997745;28;20104;-82
2023/09/14 13:42:45;;;;;;;0.82;0.70;;;;;;;;;;4999768;28;20025;-82
2023/09/14 13:45:11;;;;;;;0.70;0.70;;;;;;;;;;5002179;28;20018;-85
2023/09/14 13:47:37;;;;;;;0.30;0.30;;;;;;;;;;5001666;28;20053;-86
2023/09/14 13:50:04;;;;;;;0.30;0.30;;;;;;;;;;5002631;28;20097;-89
2023/09/14 13:52:30;;;;;;;0.77;0.38;;;;;;;;;;5002401;28;20045;-88
2023/09/14 13:54:56;;;;;;;0.85;0.60;;;;;;;;;;5000749;28;20108;-87
2023/09/14 13:57:22;;;;;;;0.80;0.60;;;;;;;;;;4996535;28;20052;-87
2023/09/14 13:59:54;;;;;;;2.50;1.08;;;;;;;;;;5012398;28;20038;-86
2023/09/14 14:02:20;;;;;;;0.45;0.45;;;;;;;;;;5012538;28;20041;-87
2023/09/14 14:04:46;;;;;;;6.05;0.90;;;;;;;;;;5012009;28;20050;-86
2023/09/14 14:07:13;;;;;;;0.93;0.90;;;;;;;;;;5008070;28;20535;-87
2023/09/14 14:09:42;;;;;;;4.72;0.85;;;;;;;;;;5006534;28;20038;-79
2023/09/14 14:12:09;;;;;;;0.40;0.40;;;;;;;;;;5000376;28;20112;-80
2023/09/14 14:14:35;;;;;;;0.40;0.40;;;;;;;;;;5001280;28;20093;-80
2023/09/14 14:17:02;;;;;;;1.95;0.70;;;;;;;;;;5000851;28;20456;-78
2023/09/14 14:19:28;;;;;;;1.00;0.63;;;;;;;;;;4999941;28;20096;-79
2023/09/14 14:21:54;;;;;;;0.50;0.38;;;;;;;;;;5001321;28;20030;-80
2023/09/14 14:24:20;;;;;;;0.60;0.60;;;;;;;;;;5000314;28;20163;-80
2023/09/14 14:26:50;;;;;;;0.85;0.50;;;;;;;;;;5000632;28;20156;-78
2023/09/14 14:29:17;;;;;;;0.85;0.70;;;;;;;;;;5001133;28;20033;-79
2023/09/14 14:31:43;;;;;;;0.47;0.43;;;;;;;;;;5000930;28;20114;-79
2023/09/14 14:34:09;;;;;;;2.42;1.33;;;;;;;;;;4997613;28;20038;-78
2023/09/14 14:36:42;;;;;;;0.88;0.70;;;;;;;;;;5009249;28;20173;-86
2023/09/14 14:39:08;;;;;;;0.65;0.60;;;;;;;;;;5011618;28;20026;-89
2023/09/14 14:41:34;;;;;;;1.00;0.70;;;;;;;;;;5006895;28;20038;-89